Omskiy-141 — UGZK — position and weather

sailwx.info

Track history (hours):
 
Tides and Currents Weather Stations Pressure Air Temp Water Temp Dewpoint Dewpoint Depression Visibility Wind Speed Wind Dir Waves Ship Positions

Omskiy-141

Last reported at 2014-Oct-14 22:22 UTC. Time now 2014-Oct-24 07:56 UTC.
Position N 59°57' E 030°24'.
Warning: this ship's position is 9 days out of date.

Length 108 m; draft 3 m.

Type: Cargo ship. MMSI: 273310600.

Date/timePositionNaut miles runAvg speedWind from/ knotsBaromVisibWave heightAir tempDewpointWater temp
2014-Oct-14 22:22N 59°57' E 030°24'4 5.4
2014-Oct-14 21:33N 59°55' E 030°16'1 1.3
2014-Oct-14 20:33N 59°54' E 030°14'0 0.0
2014-Oct-14 19:33N 59°54' E 030°14'0 0.0
2014-Oct-14 18:30N 59°54' E 030°14'0 0.0
2014-Oct-14 17:33N 59°54' E 030°14'0 0.0
2014-Oct-14 16:30N 59°54' E 030°14'0 0.0
2014-Oct-14 15:33N 59°54' E 030°14'0 0.0
2014-Oct-14 14:33N 59°54' E 030°14'0 0.0
2014-Oct-14 13:33N 59°54' E 030°14'0 0.0
2014-Oct-14 12:33N 59°54' E 030°14'0 0.0
2014-Oct-14 11:33N 59°54' E 030°14'0 0.0
2014-Oct-14 10:33N 59°54' E 030°14'0 0.0
2014-Oct-14 09:24N 59°54' E 030°14'0 0.0
2014-Oct-14 07:24N 59°54' E 030°14'0 0.0
2014-Oct-14 06:06N 59°54' E 030°14'0 0.0
2014-Oct-14 05:24N 59°54' E 030°14'0 0.0
2014-Oct-14 03:33N 59°54' E 030°14'0 0.0
2014-Oct-14 02:33N 59°54' E 030°14'0 0.0
2014-Oct-13 06:33N 59°54' E 030°14'2 2.3
2014-Oct-13 05:27N 59°53' E 030°09'98 4.9
2014-Oct-12 09:22N 59°58' E 026°54'11 8.7
2014-Oct-12 08:05N 59°58' E 026°32'58 8.8
2014-Oct-12 01:33N 59°44' E 024°41'9 8.7
2014-Oct-12 00:33N 59°42' E 024°24'339 8.7
2014-Oct-10 09:24N 55°57' E 016°29'47 8.8
2014-Oct-10 04:05N 55°34' E 015°16'8 9.1
2014-Oct-10 03:16N 55°30' E 015°05'7 9.2
2014-Oct-10 02:33N 55°27' E 014°54'9 9.1
2014-Oct-10 01:31N 55°23' E 014°40'9 9.1
2014-Oct-10 00:33N 55°16' E 014°30'9 9.1
2014-Oct-09 23:33N 55°09' E 014°19'8 8.2
2014-Oct-09 22:32N 55°09' E 014°05'34 8.4
2014-Oct-09 18:32N 55°12' E 013°06'8 8.4
2014-Oct-09 17:33N 55°15' E 012°52'8 8.4
2014-Oct-09 16:33N 55°18' E 012°39'7 7.4
2014-Oct-09 15:33N 55°25' E 012°39'8 8.3
2014-Oct-09 14:33N 55°33' E 012°42'9 8.7
2014-Oct-09 13:33N 55°42' E 012°41'8 8.1
2014-Oct-09 12:33N 55°50' E 012°40'8 8.1
2014-Oct-09 11:33N 55°58' E 012°38'7 6.5
2014-Oct-09 10:33N 56°04' E 012°36'7 6.5
2014-Oct-09 09:33N 56°08' E 012°27'8 8.4
2014-Oct-09 08:33N 56°13' E 012°14'8 8.0
2014-Oct-09 07:33N 56°17' E 012°02'72 7.2
2014-Oct-08 21:32N 56°59' E 010°15'8 8.1
2014-Oct-08 20:33N 57°03' E 010°03'4 4.3
2014-Oct-08 19:33N 57°03' E 009°55'6 6.0
2014-Oct-08 18:33N 57°03' E 009°44'  
Track history (hours):
 
Tides and Currents Weather Stations Pressure Air Temp Water Temp Dewpoint Dewpoint Depression Visibility Wind Speed Wind Dir Waves Ship Positions

Omskiy-141

Last reported at 2014-Oct-14 22:22 UTC. Time now 2014-Oct-24 07:56 UTC.
Position N 59°57' E 030°24'.
Warning: this ship's position is 9 days out of date.

Length 108 m; draft 3 m.

Type: Cargo ship. MMSI: 273310600.

Date/timePositionNaut miles runAvg speedWind from/ knotsBaromVisibWave heightAir tempDewpointWater temp
2014-Oct-14 22:22N 59°57' E 030°24'4 5.4
2014-Oct-14 21:33N 59°55' E 030°16'1 1.3
2014-Oct-14 20:33N 59°54' E 030°14'0 0.0
2014-Oct-14 19:33N 59°54' E 030°14'0 0.0
2014-Oct-14 18:30N 59°54' E 030°14'0 0.0
2014-Oct-14 17:33N 59°54' E 030°14'0 0.0
2014-Oct-14 16:30N 59°54' E 030°14'0 0.0
2014-Oct-14 15:33N 59°54' E 030°14'0 0.0
2014-Oct-14 14:33N 59°54' E 030°14'0 0.0
2014-Oct-14 13:33N 59°54' E 030°14'0 0.0
2014-Oct-14 12:33N 59°54' E 030°14'0 0.0
2014-Oct-14 11:33N 59°54' E 030°14'0 0.0
2014-Oct-14 10:33N 59°54' E 030°14'0 0.0
2014-Oct-14 09:24N 59°54' E 030°14'0 0.0
2014-Oct-14 07:24N 59°54' E 030°14'0 0.0
2014-Oct-14 06:06N 59°54' E 030°14'0 0.0
2014-Oct-14 05:24N 59°54' E 030°14'0 0.0
2014-Oct-14 03:33N 59°54' E 030°14'0 0.0
2014-Oct-14 02:33N 59°54' E 030°14'0 0.0
2014-Oct-13 06:33N 59°54' E 030°14'2 2.3
2014-Oct-13 05:27N 59°53' E 030°09'98 4.9
2014-Oct-12 09:22N 59°58' E 026°54'11 8.7
2014-Oct-12 08:05N 59°58' E 026°32'58 8.8
2014-Oct-12 01:33N 59°44' E 024°41'9 8.7
2014-Oct-12 00:33N 59°42' E 024°24'339 8.7
2014-Oct-10 09:24N 55°57' E 016°29'47 8.8
2014-Oct-10 04:05N 55°34' E 015°16'8 9.1
2014-Oct-10 03:16N 55°30' E 015°05'7 9.2
2014-Oct-10 02:33N 55°27' E 014°54'9 9.1
2014-Oct-10 01:31N 55°23' E 014°40'9 9.1
2014-Oct-10 00:33N 55°16' E 014°30'9 9.1
2014-Oct-09 23:33N 55°09' E 014°19'8 8.2
2014-Oct-09 22:32N 55°09' E 014°05'34 8.4
2014-Oct-09 18:32N 55°12' E 013°06'8 8.4
2014-Oct-09 17:33N 55°15' E 012°52'8 8.4
2014-Oct-09 16:33N 55°18' E 012°39'7 7.4
2014-Oct-09 15:33N 55°25' E 012°39'8 8.3
2014-Oct-09 14:33N 55°33' E 012°42'9 8.7
2014-Oct-09 13:33N 55°42' E 012°41'8 8.1
2014-Oct-09 12:33N 55°50' E 012°40'8 8.1
2014-Oct-09 11:33N 55°58' E 012°38'7 6.5
2014-Oct-09 10:33N 56°04' E 012°36'7 6.5
2014-Oct-09 09:33N 56°08' E 012°27'8 8.4
2014-Oct-09 08:33N 56°13' E 012°14'8 8.0
2014-Oct-09 07:33N 56°17' E 012°02'72 7.2
2014-Oct-08 21:32N 56°59' E 010°15'8 8.1
2014-Oct-08 20:33N 57°03' E 010°03'4 4.3
2014-Oct-08 19:33N 57°03' E 009°55'6 6.0
2014-Oct-08 18:33N 57°03' E 009°44'  

Dump ship's entire track history